createdAt,value
2017-07-09T00:01:41.856Z,90.55
2017-07-09T00:04:11.317Z,90.75
2017-07-09T00:06:40.800Z,90.13
2017-07-09T00:09:10.268Z,90.08
2017-07-09T00:11:39.758Z,89.88
2017-07-09T00:14:09.212Z,89.59
2017-07-09T00:16:38.685Z,90.22
2017-07-09T00:19:08.190Z,90.50
2017-07-09T00:21:37.659Z,90.82
2017-07-09T00:24:07.152Z,91.19
2017-07-09T00:26:36.628Z,91.18
2017-07-09T00:29:06.091Z,91.19
2017-07-09T00:31:35.596Z,91.26
2017-07-09T00:34:05.055Z,91.03
2017-07-09T00:36:34.524Z,91.09
2017-07-09T00:39:03.723Z,91.54
2017-07-09T00:41:33.194Z,91.37
2017-07-09T00:44:02.671Z,90.96
2017-07-09T00:46:32.143Z,90.99
2017-07-09T00:49:01.610Z,91.29
2017-07-09T00:51:31.772Z,91.79
2017-07-09T00:54:01.266Z,91.81
2017-07-09T00:56:30.744Z,91.83
2017-07-09T00:59:00.203Z,91.19
2017-07-09T01:01:29.695Z,91.00
2017-07-09T01:03:59.171Z,90.96
2017-07-09T01:06:28.635Z,90.71
2017-07-09T01:08:58.121Z,90.31
2017-07-09T01:11:27.583Z,90.43
2017-07-09T01:13:57.053Z,89.99
2017-07-09T01:16:26.539Z,89.57
2017-07-09T01:18:56.013Z,89.87
2017-07-09T01:21:25.504Z,90.00
2017-07-09T01:23:54.963Z,90.45
2017-07-09T01:26:24.427Z,90.30
2017-07-09T01:28:53.914Z,90.68
2017-07-09T01:31:23.387Z,91.41
2017-07-09T01:33:52.842Z,91.37
2017-07-09T01:36:22.326Z,91.37
2017-07-09T01:38:51.807Z,91.50
2017-07-09T01:41:22.197Z,91.46
2017-07-09T01:43:51.669Z,91.61
2017-07-09T01:46:21.139Z,91.64
2017-07-09T01:48:50.624Z,91.57
2017-07-09T01:51:20.119Z,91.57
2017-07-09T01:53:49.607Z,91.63
2017-07-09T01:56:18.782Z,91.71
2017-07-09T01:58:47.744Z,92.35
2017-07-09T02:01:17.227Z,92.11
2017-07-09T02:03:46.664Z,91.90
2017-07-09T02:06:16.129Z,92.33
2017-07-09T02:08:45.591Z,92.39
2017-07-09T02:11:15.037Z,92.32
2017-07-09T02:13:44.509Z,92.51
2017-07-09T02:16:13.976Z,92.82
2017-07-09T02:18:43.430Z,92.93
2017-07-09T02:21:12.886Z,92.67
2017-07-09T02:23:42.335Z,92.63
2017-07-09T02:26:11.797Z,92.67
2017-07-09T02:28:41.264Z,92.76
2017-07-09T02:31:10.738Z,92.71
2017-07-09T02:33:40.998Z,92.61
2017-07-09T02:36:10.463Z,92.41
2017-07-09T02:38:39.926Z,92.41
2017-07-09T02:41:09.385Z,92.54
2017-07-09T02:43:38.842Z,92.69
2017-07-09T02:46:08.385Z,93.20
2017-07-09T02:48:37.839Z,93.22
2017-07-09T02:51:07.302Z,93.14
2017-07-09T02:53:36.766Z,93.29
2017-07-09T02:56:06.253Z,93.21
2017-07-09T02:58:35.732Z,93.03
2017-07-09T03:01:05.217Z,92.56
2017-07-09T03:03:34.706Z,92.48
2017-07-09T03:06:04.164Z,92.73
2017-07-09T03:08:33.624Z,93.36
2017-07-09T03:11:03.106Z,93.49
2017-07-09T03:13:32.614Z,93.48
2017-07-09T03:16:02.071Z,93.63
2017-07-09T03:18:31.541Z,93.50
2017-07-09T03:21:01.008Z,93.10
2017-07-09T03:23:30.473Z,92.95
2017-07-09T03:25:59.937Z,92.90
2017-07-09T03:28:29.402Z,92.90
2017-07-09T03:30:58.862Z,92.98
2017-07-09T03:33:28.325Z,93.00
2017-07-09T03:35:57.788Z,93.27
2017-07-09T03:38:27.277Z,93.00
2017-07-09T03:40:56.748Z,92.64
2017-07-09T03:43:26.196Z,92.24
2017-07-09T03:45:55.654Z,91.95
2017-07-09T03:48:25.175Z,91.87
2017-07-09T03:50:54.454Z,91.45
2017-07-09T03:53:24.165Z,91.51
2017-07-09T03:55:53.638Z,91.62
2017-07-09T03:58:22.754Z,91.71
2017-07-09T04:00:52.214Z,91.57
2017-07-09T04:03:21.675Z,91.40
2017-07-09T04:05:51.131Z,91.59
2017-07-09T04:08:20.618Z,91.48
2017-07-09T04:10:50.059Z,91.63
2017-07-09T04:13:19.535Z,90.94
2017-07-09T04:15:48.989Z,91.01
2017-07-09T04:18:18.445Z,90.82
2017-07-09T04:20:47.600Z,90.30
2017-07-09T04:23:17.041Z,90.24
2017-07-09T04:25:46.533Z,90.35
2017-07-09T04:28:15.977Z,90.01
2017-07-09T04:30:45.438Z,89.78
2017-07-09T04:33:14.926Z,89.96
2017-07-09T04:35:44.382Z,90.08
2017-07-09T04:38:13.833Z,89.76
2017-07-09T04:40:43.302Z,89.52
2017-07-09T04:43:12.771Z,89.20
2017-07-09T04:45:42.221Z,89.30
2017-07-09T04:48:11.674Z,89.11
2017-07-09T04:50:41.141Z,88.65
2017-07-09T04:53:10.650Z,88.59
2017-07-09T04:55:40.106Z,88.20
2017-07-09T04:58:09.564Z,87.91
2017-07-09T05:00:39.021Z,87.13
2017-07-09T05:03:08.487Z,87.11
2017-07-09T05:05:37.954Z,86.96
2017-07-09T05:08:07.091Z,86.61
2017-07-09T05:10:36.811Z,86.61
2017-07-09T05:13:06.281Z,85.58
2017-07-09T05:15:35.734Z,84.17
2017-07-09T05:18:05.210Z,83.86
2017-07-09T05:20:34.677Z,84.20
2017-07-09T05:23:04.160Z,84.10
2017-07-09T05:25:33.721Z,82.25
2017-07-09T05:28:03.168Z,81.41
2017-07-09T05:30:32.630Z,81.05
2017-07-09T05:33:02.097Z,79.64
2017-07-09T05:35:31.559Z,79.94
2017-07-09T05:38:01.012Z,78.50
2017-07-09T05:40:30.477Z,78.42
2017-07-09T05:42:59.946Z,76.76
2017-07-09T05:45:29.394Z,77.19
2017-07-09T05:47:58.889Z,77.29
2017-07-09T05:50:28.339Z,76.83
2017-07-09T05:52:57.812Z,76.79
2017-07-09T05:55:27.268Z,76.87
2017-07-09T05:57:56.718Z,76.09
2017-07-09T06:00:26.171Z,75.83
2017-07-09T06:02:55.654Z,75.45
2017-07-09T06:05:25.118Z,75.19
2017-07-09T06:07:54.584Z,75.83
2017-07-09T06:10:24.047Z,76.09
2017-07-09T06:12:53.503Z,76.41
2017-07-09T06:15:22.966Z,76.19
2017-07-09T06:17:52.434Z,75.04
2017-07-09T06:20:21.898Z,74.53
2017-07-09T06:22:51.389Z,74.72
2017-07-09T06:25:22.497Z,73.88
2017-07-09T06:27:51.965Z,73.96
2017-07-09T06:30:21.287Z,72.50
2017-07-09T06:32:50.766Z,72.92
2017-07-09T06:35:20.220Z,73.68
2017-07-09T06:37:49.682Z,71.53
2017-07-09T06:40:19.175Z,71.06
2017-07-09T06:42:48.634Z,71.04
2017-07-09T06:45:18.959Z,71.17
2017-07-09T06:47:48.420Z,70.92
2017-07-09T06:50:17.882Z,71.09
2017-07-09T06:52:47.353Z,71.35
2017-07-09T06:55:16.854Z,70.71
2017-07-09T06:57:46.289Z,69.62
2017-07-09T07:00:15.765Z,69.72
2017-07-09T07:02:45.238Z,69.35
2017-07-09T07:05:15.002Z,68.99
2017-07-09T07:07:44.468Z,69.82
2017-07-09T07:10:13.928Z,70.15
2017-07-09T07:12:43.393Z,69.03
2017-07-09T07:15:12.874Z,68.57
2017-07-09T07:17:42.342Z,66.73
2017-07-09T07:20:11.801Z,66.77
2017-07-09T07:22:41.262Z,67.68
2017-07-09T07:25:10.748Z,65.87
2017-07-09T07:27:40.228Z,65.33
2017-07-09T07:30:09.376Z,65.06
2017-07-09T07:32:38.879Z,64.36
2017-07-09T07:35:08.393Z,63.32
2017-07-09T07:37:37.914Z,61.50
2017-07-09T07:40:07.390Z,61.26
2017-07-09T07:42:36.830Z,59.87
2017-07-09T07:45:06.303Z,60.31
2017-07-09T07:47:35.795Z,60.42
2017-07-09T07:50:05.270Z,59.89
2017-07-09T07:52:34.732Z,59.63
2017-07-09T07:55:04.205Z,59.78
2017-07-09T07:57:33.657Z,59.28
2017-07-09T08:00:03.133Z,59.46
2017-07-09T08:02:32.594Z,58.64
2017-07-09T08:05:02.109Z,56.21
2017-07-09T08:07:31.577Z,57.98
2017-07-09T08:10:01.041Z,57.13
2017-07-09T08:12:30.491Z,55.75
2017-07-09T08:14:59.954Z,55.21
2017-07-09T08:17:29.431Z,56.17
2017-07-09T08:19:58.911Z,55.13
2017-07-09T08:22:28.424Z,54.89
2017-07-09T08:24:57.888Z,54.95
2017-07-09T08:27:27.341Z,51.94
2017-07-09T08:29:56.807Z,50.15
2017-07-09T08:32:26.273Z,48.63
2017-07-09T08:34:55.720Z,48.73
2017-07-09T08:37:25.162Z,48.41
2017-07-09T08:39:54.631Z,49.59
2017-07-09T08:42:24.070Z,49.38
2017-07-09T08:44:53.515Z,48.81
2017-07-09T08:47:22.969Z,48.87
2017-07-09T08:49:52.429Z,49.13
2017-07-09T08:52:21.887Z,46.65
2017-07-09T08:54:51.361Z,47.36
2017-07-09T08:57:20.824Z,45.74
2017-07-09T08:59:50.267Z,45.79
2017-07-09T09:02:19.720Z,47.55
2017-07-09T09:04:49.174Z,45.49
2017-07-09T09:07:18.615Z,44.71
2017-07-09T09:09:48.053Z,45.02
2017-07-09T09:12:17.518Z,44.94
2017-07-09T09:14:47.015Z,45.90
2017-07-09T09:17:16.480Z,45.34
2017-07-09T09:19:45.930Z,44.96
2017-07-09T09:22:15.373Z,45.49
2017-07-09T09:24:44.855Z,45.45
2017-07-09T09:27:13.962Z,47.01
2017-07-09T09:29:43.408Z,46.68
2017-07-09T09:32:12.857Z,47.72
2017-07-09T09:34:42.317Z,44.54
2017-07-09T09:37:11.809Z,44.45
2017-07-09T09:39:41.255Z,45.20
2017-07-09T09:42:10.710Z,46.05
2017-07-09T09:44:40.147Z,44.32
2017-07-09T09:47:09.607Z,44.59
2017-07-09T09:49:38.710Z,45.92
2017-07-09T09:52:08.165Z,46.81
2017-07-09T09:54:37.617Z,47.06
2017-07-09T09:57:07.072Z,47.13
2017-07-09T09:59:36.543Z,46.33
2017-07-09T10:02:05.998Z,46.71
2017-07-09T10:04:35.441Z,46.12
2017-07-09T10:07:04.885Z,46.87
2017-07-09T10:09:34.337Z,46.49
2017-07-09T10:12:03.786Z,45.82
2017-07-09T10:14:33.254Z,45.26
2017-07-09T10:17:02.713Z,45.42
2017-07-09T10:19:32.147Z,44.52
2017-07-09T10:22:01.613Z,45.30
2017-07-09T10:24:31.092Z,45.80
2017-07-09T10:27:00.544Z,45.09
2017-07-09T10:29:30.017Z,44.99
2017-07-09T10:31:59.463Z,45.44
2017-07-09T10:34:28.905Z,45.40
2017-07-09T10:36:58.365Z,45.64
2017-07-09T10:39:27.829Z,46.03
2017-07-09T10:41:57.272Z,45.19
2017-07-09T10:44:26.737Z,43.84
2017-07-09T10:46:56.214Z,43.99
2017-07-09T10:49:25.709Z,42.97
2017-07-09T10:51:55.142Z,43.80
2017-07-09T10:54:24.584Z,42.26
2017-07-09T10:56:54.034Z,42.60
2017-07-09T10:59:23.470Z,42.16
2017-07-09T11:01:52.936Z,43.22
2017-07-09T11:04:22.398Z,43.88
2017-07-09T11:06:51.850Z,45.09
2017-07-09T11:09:21.301Z,44.68
2017-07-09T11:11:50.740Z,45.33
2017-07-09T11:14:20.175Z,45.61
2017-07-09T11:16:49.638Z,46.64
2017-07-09T11:19:18.738Z,47.37
2017-07-09T11:21:48.186Z,47.06
2017-07-09T11:24:17.689Z,46.79
2017-07-09T11:26:47.162Z,46.79
2017-07-09T11:29:16.834Z,49.03
2017-07-09T11:31:46.291Z,50.68
2017-07-09T11:34:15.741Z,50.30
2017-07-09T11:36:45.202Z,50.47
2017-07-09T11:39:14.656Z,50.90
2017-07-09T11:41:44.089Z,50.57
2017-07-09T11:44:13.577Z,50.69
2017-07-09T11:46:43.048Z,50.35
2017-07-09T11:49:12.473Z,51.22
2017-07-09T11:51:41.935Z,51.32
2017-07-09T11:54:11.391Z,51.09
2017-07-09T11:56:40.833Z,51.83
2017-07-09T11:59:10.286Z,53.24
2017-07-09T12:01:39.740Z,53.90
2017-07-09T12:04:09.197Z,54.32
2017-07-09T12:06:38.293Z,54.16
2017-07-09T12:09:08.467Z,54.16
2017-07-09T12:11:37.940Z,54.91
2017-07-09T12:14:07.394Z,54.83
2017-07-09T12:16:36.850Z,55.71
2017-07-09T12:19:06.313Z,55.22
2017-07-09T12:21:35.757Z,54.92
2017-07-09T12:24:05.218Z,54.18
2017-07-09T12:26:34.697Z,52.72
2017-07-09T12:29:04.142Z,51.71
2017-07-09T12:31:33.592Z,51.21
2017-07-09T12:34:03.039Z,52.51
2017-07-09T12:36:32.494Z,50.95
2017-07-09T12:39:01.946Z,47.15
2017-07-09T12:41:31.418Z,45.75
2017-07-09T12:44:00.700Z,43.24
2017-07-09T12:46:30.153Z,43.36
2017-07-09T12:48:59.614Z,43.67
2017-07-09T12:51:29.065Z,43.23
2017-07-09T12:53:58.333Z,44.03
2017-07-09T12:56:27.776Z,43.10
2017-07-09T12:58:57.231Z,43.46
2017-07-09T13:01:26.691Z,40.63
2017-07-09T13:03:56.129Z,40.56
2017-07-09T13:06:25.620Z,37.99
2017-07-09T13:08:55.113Z,38.90
2017-07-09T13:11:24.368Z,37.36
2017-07-09T13:13:53.814Z,37.44
2017-07-09T13:16:23.269Z,36.41
2017-07-09T13:18:52.803Z,37.02
2017-07-09T13:21:22.277Z,35.44
2017-07-09T13:23:51.534Z,33.46
2017-07-09T13:26:21.030Z,33.73
2017-07-09T13:28:50.464Z,31.73
2017-07-09T13:31:19.927Z,32.29
2017-07-09T13:33:49.493Z,29.93
2017-07-09T13:36:19.185Z,26.88
2017-07-09T13:38:48.647Z,25.11
2017-07-09T13:41:18.100Z,27.07
2017-07-09T13:43:47.622Z,29.16
2017-07-09T13:46:16.726Z,30.23
2017-07-09T13:48:46.094Z,30.38
2017-07-09T13:51:15.555Z,29.63
2017-07-09T13:53:44.803Z,28.57
2017-07-09T13:56:14.317Z,29.43
2017-07-09T13:58:43.771Z,29.35
2017-07-09T14:01:13.225Z,30.34
2017-07-09T14:03:42.691Z,29.52
2017-07-09T14:06:12.297Z,29.05
2017-07-09T14:08:41.979Z,27.96
2017-07-09T14:11:11.450Z,26.59
2017-07-09T14:13:41.219Z,26.62
2017-07-09T14:16:10.495Z,27.09
2017-07-09T14:18:40.080Z,27.90
2017-07-09T14:21:09.551Z,29.53
2017-07-09T14:23:39.043Z,30.57
2017-07-09T14:26:08.501Z,29.30
2017-07-09T14:28:37.968Z,30.76
2017-07-09T14:31:07.440Z,30.29
2017-07-09T14:33:36.887Z,28.50
2017-07-09T14:36:06.364Z,27.97
2017-07-09T14:38:35.987Z,30.44
2017-07-09T14:41:05.415Z,30.56
2017-07-09T14:43:34.900Z,30.48
2017-07-09T14:46:04.367Z,27.86
2017-07-09T14:48:33.795Z,28.98
2017-07-09T14:51:03.085Z,27.17
2017-07-09T14:53:32.543Z,24.15
2017-07-09T14:56:02.078Z,23.40
2017-07-09T14:58:31.513Z,22.13
2017-07-09T15:01:00.968Z,21.96
2017-07-09T15:03:31.085Z,20.36
2017-07-09T15:06:00.630Z,20.34
2017-07-09T15:08:30.523Z,20.21
2017-07-09T15:11:01.082Z,20.63
2017-07-09T15:13:31.811Z,20.59
2017-07-09T15:16:02.113Z,20.31
2017-07-09T15:18:33.483Z,20.95
2017-07-09T15:21:04.203Z,20.17
2017-07-09T15:23:34.505Z,20.46
2017-07-09T15:26:04.609Z,20.53
2017-07-09T15:28:35.122Z,20.14
2017-07-09T15:31:05.144Z,19.36
2017-07-09T15:33:35.408Z,20.80
2017-07-09T15:36:05.419Z,20.22
2017-07-09T15:38:36.303Z,20.55
2017-07-09T15:41:06.896Z,20.28
2017-07-09T15:43:36.917Z,20.32
2017-07-09T15:46:07.218Z,20.29
2017-07-09T15:48:37.617Z,20.97
2017-07-09T15:51:07.480Z,20.50
2017-07-09T15:53:37.449Z,20.21
2017-07-09T15:56:08.498Z,20.65
2017-07-09T15:58:38.902Z,20.41
2017-07-09T16:01:09.062Z,21.33
2017-07-09T16:03:39.599Z,22.19
2017-07-09T16:06:09.626Z,21.99
2017-07-09T16:08:39.829Z,24.38
2017-07-09T16:11:10.006Z,23.90
2017-07-09T16:13:40.465Z,24.40
2017-07-09T16:16:10.321Z,24.27
2017-07-09T16:18:40.455Z,23.85
2017-07-09T16:21:10.625Z,24.13
2017-07-09T16:23:40.907Z,25.46
2017-07-09T16:26:10.964Z,24.95
2017-07-09T16:28:41.739Z,25.53
2017-07-09T16:31:12.070Z,25.72
2017-07-09T16:33:42.591Z,24.72
2017-07-09T16:36:12.408Z,25.09
2017-07-09T16:38:42.275Z,25.42
2017-07-09T16:41:12.387Z,24.56
2017-07-09T16:43:42.351Z,25.25
2017-07-09T16:46:12.771Z,25.11
2017-07-09T16:48:42.742Z,24.71
2017-07-09T16:51:13.390Z,25.29
2017-07-09T16:53:43.444Z,25.01
2017-07-09T16:56:13.541Z,24.94
2017-07-09T16:58:42.997Z,25.79
2017-07-09T17:01:12.450Z,27.59
2017-07-09T17:03:41.926Z,29.22
2017-07-09T17:06:11.392Z,32.07
2017-07-09T17:08:40.823Z,33.61
2017-07-09T17:11:10.299Z,34.57
2017-07-09T17:13:39.731Z,34.03
2017-07-09T17:16:09.175Z,36.45
2017-07-09T17:18:38.639Z,36.15
2017-07-09T17:21:08.096Z,36.46
2017-07-09T17:23:37.553Z,38.35
2017-07-09T17:26:07.005Z,40.11
2017-07-09T17:28:36.515Z,41.71
2017-07-09T17:31:05.986Z,42.96
2017-07-09T17:33:35.464Z,42.48
2017-07-09T17:36:04.902Z,44.63
2017-07-09T17:38:34.347Z,44.56
2017-07-09T17:41:03.801Z,46.96
2017-07-09T17:43:33.285Z,47.79
2017-07-09T17:46:02.737Z,48.79
2017-07-09T17:48:32.193Z,48.39
2017-07-09T17:51:01.331Z,48.37
2017-07-09T17:53:30.808Z,50.15
2017-07-09T17:56:00.298Z,51.73
2017-07-09T17:58:29.873Z,53.92
2017-07-09T18:00:59.326Z,54.82
2017-07-09T18:03:28.796Z,55.74
2017-07-09T18:05:58.252Z,55.75
2017-07-09T18:08:27.886Z,55.66
2017-07-09T18:10:57.523Z,57.36
2017-07-09T18:13:27.007Z,58.14
2017-07-09T18:15:56.471Z,58.81
2017-07-09T18:18:25.775Z,61.20
2017-07-09T18:20:56.201Z,61.87
2017-07-09T18:23:27.182Z,61.82
2017-07-09T18:25:57.377Z,61.71
2017-07-09T18:28:27.830Z,61.96
2017-07-09T18:30:58.111Z,62.28
2017-07-09T18:33:28.777Z,62.33
2017-07-09T18:35:59.027Z,62.07
2017-07-09T18:38:29.237Z,63.05
2017-07-09T18:40:59.555Z,63.28
2017-07-09T18:43:30.293Z,63.79
2017-07-09T18:46:00.721Z,64.05
2017-07-09T18:48:31.044Z,65.11
2017-07-09T18:51:01.777Z,65.67
2017-07-09T18:53:32.127Z,67.21
2017-07-09T18:56:02.459Z,67.44
2017-07-09T18:58:33.222Z,67.52
2017-07-09T19:01:04.716Z,69.47
2017-07-09T19:03:35.031Z,70.06
2017-07-09T19:06:05.490Z,71.43
2017-07-09T19:08:37.094Z,72.19
2017-07-09T19:11:08.486Z,66.57
2017-07-09T19:13:38.867Z,69.14
2017-07-09T19:16:08.961Z,70.38
2017-07-09T19:18:38.936Z,74.52
2017-07-09T19:21:09.317Z,72.49
2017-07-09T19:23:39.246Z,72.66
2017-07-09T19:26:08.909Z,73.84
2017-07-09T19:28:38.666Z,75.96
2017-07-09T19:31:09.124Z,77.07
2017-07-09T19:33:39.688Z,76.42
2017-07-09T19:36:09.773Z,78.98
2017-07-09T19:38:39.991Z,79.54
2017-07-09T19:41:10.618Z,80.52
2017-07-09T19:43:40.878Z,82.49
2017-07-09T19:46:11.412Z,83.41
2017-07-09T19:48:42.063Z,84.17
2017-07-09T19:51:12.395Z,85.31
2017-07-09T19:53:43.151Z,85.20
2017-07-09T19:56:13.668Z,86.64
2017-07-09T19:58:44.161Z,87.40
2017-07-09T20:01:14.690Z,87.69
2017-07-09T20:03:44.954Z,86.46
2017-07-09T20:06:14.979Z,85.75
2017-07-09T20:08:45.586Z,85.59
2017-07-09T20:11:15.648Z,86.19
2017-07-09T20:13:46.138Z,86.21
2017-07-09T20:16:16.684Z,86.67
2017-07-09T20:18:46.654Z,86.77
2017-07-09T20:21:16.835Z,87.05
2017-07-09T20:23:47.399Z,87.35
2017-07-09T20:26:17.471Z,86.43
2017-07-09T20:28:47.102Z,85.21
2017-07-09T20:31:17.315Z,84.27
2017-07-09T20:33:48.148Z,83.90
2017-07-09T20:36:18.077Z,83.98
2017-07-09T20:38:48.610Z,83.71
2017-07-09T20:41:19.115Z,84.17
2017-07-09T20:43:49.800Z,84.93
2017-07-09T20:46:20.083Z,85.34
2017-07-09T20:48:50.150Z,85.25
2017-07-09T20:51:20.173Z,85.91
2017-07-09T20:53:50.531Z,86.63
2017-07-09T20:56:20.962Z,87.49
2017-07-09T20:58:50.992Z,87.51
2017-07-09T21:01:20.575Z,87.70
2017-07-09T21:03:50.023Z,87.93
2017-07-09T21:06:19.134Z,87.93
2017-07-09T21:08:48.609Z,88.08
2017-07-09T21:11:18.059Z,87.94
2017-07-09T21:13:47.501Z,87.83
2017-07-09T21:16:16.971Z,88.15
2017-07-09T21:18:46.085Z,88.72
2017-07-09T21:21:15.548Z,88.42
2017-07-09T21:23:45.017Z,88.92
2017-07-09T21:26:14.498Z,89.42
2017-07-09T21:28:43.967Z,89.92
2017-07-09T21:31:13.437Z,89.48
2017-07-09T21:33:42.876Z,89.35
2017-07-09T21:36:12.340Z,89.40
2017-07-09T21:38:41.794Z,89.33
2017-07-09T21:41:11.081Z,89.45
2017-07-09T21:43:40.448Z,90.19
2017-07-09T21:46:09.901Z,90.35
2017-07-09T21:48:39.477Z,90.43
2017-07-09T21:51:08.918Z,90.50
2017-07-09T21:53:38.380Z,90.49
2017-07-09T21:56:07.818Z,89.81
2017-07-09T21:58:37.272Z,89.15
2017-07-09T22:01:06.738Z,89.13
2017-07-09T22:03:36.007Z,89.39
2017-07-09T22:06:05.466Z,89.18
2017-07-09T22:08:34.733Z,88.73
2017-07-09T22:11:04.185Z,88.26
2017-07-09T22:13:33.648Z,87.80
2017-07-09T22:16:03.124Z,87.78
2017-07-09T22:18:32.575Z,88.17
2017-07-09T22:21:02.057Z,88.43
2017-07-09T22:23:31.530Z,88.63
2017-07-09T22:26:00.993Z,89.16
2017-07-09T22:28:30.478Z,88.71
2017-07-09T22:30:59.911Z,87.78
2017-07-09T22:33:29.374Z,87.24
2017-07-09T22:35:58.835Z,86.87
2017-07-09T22:38:28.314Z,86.14
2017-07-09T22:40:57.860Z,86.07
2017-07-09T22:43:27.331Z,85.01
2017-07-09T22:45:56.595Z,84.75
2017-07-09T22:48:26.036Z,84.97
2017-07-09T22:50:55.506Z,84.82
2017-07-09T22:53:24.942Z,84.18
2017-07-09T22:55:54.389Z,83.72
2017-07-09T22:58:23.893Z,84.21
2017-07-09T23:00:53.361Z,84.32
2017-07-09T23:03:22.863Z,85.44
2017-07-09T23:05:52.313Z,85.95
2017-07-09T23:08:21.753Z,85.16
2017-07-09T23:10:51.192Z,84.56
2017-07-09T23:13:20.637Z,84.77
2017-07-09T23:15:50.113Z,85.24
2017-07-09T23:18:19.566Z,85.18
2017-07-09T23:20:49.018Z,85.76
2017-07-09T23:23:18.469Z,86.34
2017-07-09T23:25:47.931Z,86.89
2017-07-09T23:28:17.390Z,87.50
2017-07-09T23:30:46.841Z,87.75
2017-07-09T23:33:16.294Z,88.48
2017-07-09T23:35:45.769Z,88.54
2017-07-09T23:38:15.462Z,88.43
2017-07-09T23:40:44.909Z,88.55
2017-07-09T23:43:14.385Z,87.98
2017-07-09T23:45:43.839Z,88.80
2017-07-09T23:48:13.327Z,88.71
2017-07-09T23:50:42.767Z,88.88
2017-07-09T23:53:12.242Z,88.26
2017-07-09T23:55:41.686Z,87.87
2017-07-09T23:58:11.142Z,87.70
